Ina Theresa — V7UJ2 — position and weather

sailwx.info

Track history (hours):
 
Tides and Currents Weather Stations Pressure Air Temp Water Temp Dewpoint Dewpoint Depression Visibility Wind Speed Wind Dir Waves Ship Positions

Ina Theresa

Last reported at 2015-Apr-23 12:13 UTC. Time now 2015-Apr-28 06:49 UTC.
Position N 57°22' E 011°29'.

Length 122 m; draft 6.2 m.

Type: Ship (hazmat cat B). MMSI: 538004548.

Date/timePositionNaut miles runAvg speedWind from/ knotsBaromVisibWave heightAir tempDewpointWater temp
2015-Apr-23 12:13N 57°22' E 011°29'39211.2
2015-Apr-22 01:17N 52°30' E 003°54'  
2015-Apr-14 20:30S 22°58' W 041°22'25811.8
2015-Apr-13 22:33S 24°21' W 045°49'1412.2
2015-Apr-13 21:23S 24°26' W 046°03'1011.2
2015-Apr-13 20:32S 24°25' W 046°14'1111.0
2015-Apr-13 19:33S 24°16' W 046°21'1211.8
2015-Apr-13 18:33S 24°04' W 046°22'1 1.1
2015-Apr-13 17:28S 24°04' W 046°21'0 0.0
2015-Apr-13 16:31S 24°04' W 046°21'0 0.0
2015-Apr-13 15:32S 24°04' W 046°21'0 0.0
2015-Apr-13 14:31S 24°04' W 046°21'0 0.0
2015-Apr-13 13:28S 24°04' W 046°21'0 0.0
2015-Apr-13 12:28S 24°04' W 046°21'  
Track history (hours):
 
Tides and Currents Weather Stations Pressure Air Temp Water Temp Dewpoint Dewpoint Depression Visibility Wind Speed Wind Dir Waves Ship Positions

Ina Theresa

Last reported at 2015-Apr-23 12:13 UTC. Time now 2015-Apr-28 06:49 UTC.
Position N 57°22' E 011°29'.

Length 122 m; draft 6.2 m.

Type: Ship (hazmat cat B). MMSI: 538004548.

Date/timePositionNaut miles runAvg speedWind from/ knotsBaromVisibWave heightAir tempDewpointWater temp
2015-Apr-23 12:13N 57°22' E 011°29'39211.2
2015-Apr-22 01:17N 52°30' E 003°54'  
2015-Apr-14 20:30S 22°58' W 041°22'25811.8
2015-Apr-13 22:33S 24°21' W 045°49'1412.2
2015-Apr-13 21:23S 24°26' W 046°03'1011.2
2015-Apr-13 20:32S 24°25' W 046°14'1111.0
2015-Apr-13 19:33S 24°16' W 046°21'1211.8
2015-Apr-13 18:33S 24°04' W 046°22'1 1.1
2015-Apr-13 17:28S 24°04' W 046°21'0 0.0
2015-Apr-13 16:31S 24°04' W 046°21'0 0.0
2015-Apr-13 15:32S 24°04' W 046°21'0 0.0
2015-Apr-13 14:31S 24°04' W 046°21'0 0.0
2015-Apr-13 13:28S 24°04' W 046°21'0 0.0
2015-Apr-13 12:28S 24°04' W 046°21'  

Dump ship's entire track history